Latest Coastal Weather Observations for Warrnambool

IDV60701

Issued at 9:12 am EST Friday 18 August 2017 (issued every 10 minutes, with the page automatically refreshed every 10 minutes)

About coastal observations | Map of coastal stations | Coastal observations for VIC | Marine services | Other Formats
Station Details ID: 090186 Name: WARRNAMBOOL AIRPORT NDB Lat: -38.29 Lon: 142.45 Height: 70.8 m
Data from the previous 72 hours. | See also: Recent months at Warrnambool
Date/Time
EST
Temp
°C
Wind Pressure Rain since
9am
mm
Weather Cloud Vis
km
Sea
Height
m
Swell
Dir  Spd
kts
Gust
kts
hPa Trend Height
m
Period
s
Dir
18/09:00am 8.5 SW 19 26 1010.3 - 11.6 Showers Cloudy 10 - - - -
18/08:54am 9.5 WSW 15 26 1010.0 - 11.6 - Partly cloudy 10 - - - -
18/08:30am 7.5 W 11 16 1009.7 - 11.6 - Partly cloudy 10 - - - -
18/08:10am 6.7 WNW 10 15 1009.1 - 11.6 - Partly cloudy 10 - - - -
18/08:00am 6.2 WNW 7 11 1008.9 - 11.6 - Partly cloudy 5 - - - -
18/07:54am 6.3 WNW 9 14 1008.7 - 11.0 - Partly cloudy 5 - - - -
18/07:30am 6.4 WNW 12 17 1008.5 - 9.4 - Partly cloudy 10 - - - -
18/07:00am 6.1 NW 11 15 1008.3 - 8.4 - Partly cloudy 10 - - - -
18/06:31am 5.7 W 13 17 1007.6 - 8.2 - Partly cloudy 10 - - - -
18/06:30am 5.6 W 13 17 1007.5 - 8.2 - Partly cloudy 10 - - - -
18/06:13am 5.2 WNW 15 39 1008.1 - 7.6 - Partly cloudy 5 - - - -
18/06:00am 6.8 WNW 11 18 1007.1 - 6.0 Showers Cloudy 10 - - - -
18/05:30am 8.0 W 15 29 1006.6 - 5.4 - Partly cloudy 10 - - - -
18/05:00am 7.9 W 12 16 1006.1 - 5.4 - Partly cloudy 10 - - - -
18/04:30am 8.1 W 16 21 1005.7 - 5.4 - Partly cloudy 10 - - - -
18/04:00am 6.4 WNW 12 16 1005.5 - 5.4 - Partly cloudy 10 - - - -
18/03:30am 6.4 W 16 23 1005.0 - 5.4 - Partly cloudy 10 - - - -
18/03:00am 6.5 WNW 10 15 1004.5 - 4.4 Showers Cloudy 10 - - - -
18/02:43am 6.6 NW 16 25 1004.5 - 3.2 - Partly cloudy 5 - - - -
18/02:30am 6.6 NW 16 21 1004.1 - 2.2 - Partly cloudy 10 - - - -
18/02:14am 6.8 NW 18 30 1003.9 - 2.2 - Partly cloudy 10 - - - -
18/02:00am 6.7 NW 19 25 1003.9 - 2.0 - Partly cloudy 10 - - - -
18/01:30am 6.9 NW 19 25 1003.5 - 2.0 - Partly cloudy 10 - - - -
18/01:00am 6.7 NW 17 22 1003.5 - 2.0 - Partly cloudy 10 - - - -
18/12:30am 7.1 NW 16 23 1003.7 - 2.0 - Partly cloudy 10 - - - -
18/12:07am 7.1 NW 15 27 1003.5 - 1.6 - Partly cloudy 10 - - - -
18/12:00am 7.0 NW 15 19 1003.6 - 1.6 Showers Cloudy 10 - - - -
 
Date/Time
EST
Temp
°C
Wind Pressure Rain since
9am
mm
Weather Cloud Vis
km
Sea
Height
m
Swell
Dir  Spd
kts
Gust
kts
hPa Trend Height
m
Period
s
Dir
17/11:30pm 6.8 NW 18 25 1003.2 - 1.2 - Partly cloudy 10 - - - -
17/11:00pm 6.6 NW 18 25 1003.4 - 1.2 - Partly cloudy 10 - - - -
17/10:30pm 6.6 NW 15 21 1003.5 - 1.2 - Partly cloudy 10 - - - -
17/10:00pm 7.4 NW 20 31 1003.6 - 0.8 - Partly cloudy 10 - - - -
17/09:30pm 6.8 NW 15 20 1003.0 - 0.8 - - 10 - - - -
17/09:00pm 6.7 NNW 15 19 1002.9 - 0.8 Showers Mostly cloudy 10 - - - -
17/08:30pm 6.5 NW 14 19 1002.9 - 0.8 - Partly cloudy 10 - - - -
17/08:00pm 6.8 NW 15 19 1002.8 - 0.8 - Partly cloudy 10 - - - -
17/07:33pm 7.7 NW 18 29 1003.0 - 0.8 - Partly cloudy 10 - - - -
17/07:30pm 7.7 NW 17 23 1003.3 - 0.8 - Partly cloudy 10 - - - -
17/07:12pm 7.4 NW 16 26 1002.4 - 0.6 - Partly cloudy 10 - - - -
17/07:00pm 7.6 NW 18 23 1002.2 - 0.6 - Partly cloudy 10 - - - -
17/06:41pm 8.1 NW 16 26 1002.3 - 0.4 - Partly cloudy 10 - - - -
17/06:30pm 8.5 NW 15 20 1001.9 - 0.2 - Partly cloudy 10 - - - -
17/06:00pm 8.0 NNW 14 19 1001.2 - 0.2 - Cloudy 10 - - - -
17/05:30pm 8.5 NW 14 18 1001.1 - 0.2 - - 10 - - - -
17/05:00pm 9.0 NW 16 21 1000.7 - 0.2 - Partly cloudy 10 - - - -
17/04:30pm 9.3 NW 17 22 1000.9 - 0.0 - Partly cloudy 10 - - - -
17/04:00pm 9.3 NW 13 21 1000.7 - 0.0 - Partly cloudy 10 - - - -
17/03:30pm 10.6 W 19 29 1000.5 - 0.0 - Partly cloudy 10 - - - -
17/03:25pm 11.5 WNW 18 28 1000.3 - 0.0 - Partly cloudy 10 - - - -
17/03:00pm 11.9 NW 15 22 1000.3 - 0.0 - Mostly cloudy 10 - - - -
17/02:42pm 11.4 WNW 15 25 1000.2 - 0.0 - Partly cloudy 10 - - - -
17/02:30pm 11.9 WNW 16 24 1000.2 - 0.0 - Partly cloudy 10 - - - -
17/02:19pm 12.0 NW 16 26 1000.2 - 0.0 - Partly cloudy 10 - - - -
17/02:00pm 11.4 NW 22 29 999.7 - 0.0 - Partly cloudy 10 - - - -
17/01:30pm 12.4 NW 19 25 1000.0 - 0.0 - Partly cloudy 10 - - - -
17/01:00pm 11.4 NW 19 25 1000.1 - 0.0 - Partly cloudy 10 - - - -
17/12:30pm 12.0 WNW 16 25 1000.5 - 0.0 - - 10 - - - -
17/12:22pm 12.0 WNW 16 26 1000.5 - 0.0 - - 10 - - - -
17/12:00pm 11.7 WNW 18 26 1000.5 - 0.0 Showers Mostly cloudy 10 - - - -
17/11:30am 12.5 WNW 17 31 1000.7 - 0.0 - Partly cloudy 10 - - - -
17/11:17am 12.0 NW 22 32 1000.5 - 0.0 - Partly cloudy 10 - - - -
17/11:00am 11.5 NW 22 30 1000.5 - 0.0 - Partly cloudy 10 - - - -
17/10:31am 11.1 NW 22 32 1000.6 - 0.0 - Partly cloudy 10 - - - -
17/10:30am 11.2 NW 23 32 1000.6 - 0.0 - Partly cloudy 10 - - - -
17/10:00am 10.7 NW 19 26 1000.7 - 0.0 - - 10 - - - -
17/09:30am 10.0 NNW 16 20 1000.6 - 0.0 - - 10 - - - -
17/09:00am 8.5 NNW 14 19 1000.6 - 16.4 - Mostly cloudy 10 - - - -
17/08:30am 8.0 NNW 14 16 1000.5 - 16.4 - Partly cloudy 10 - - - -
17/08:00am 7.9 NW 14 18 1000.3 - 16.4 - Partly cloudy 10 - - - -
17/07:30am 7.7 NW 13 17 1000.7 - 16.2 - Partly cloudy 10 - - - -
17/07:00am 7.9 NW 13 17 1000.5 - 15.2 - Partly cloudy 10 - - - -
17/06:31am 8.0 WNW 13 20 1000.5 - 14.4 - Partly cloudy 10 - - - -
17/06:30am 8.0 WNW 13 21 1000.5 - 14.4 - Partly cloudy 10 - - - -
17/06:15am 8.6 WNW 16 22 1000.7 - 13.6 - Partly cloudy 5 - - - -
17/06:00am 9.0 NNW 10 13 1000.0 - 13.0 Rain Cloudy 10 - - - -
17/05:30am 8.8 NNW 10 13 999.9 - 13.0 - Partly cloudy 10 - - - -
17/05:00am 9.1 NNW 12 17 1000.0 - 12.6 - Partly cloudy 10 - - - -
17/04:30am 8.7 NNW 10 13 999.7 - 12.6 - - 10 - - - -
17/04:00am 9.2 NW 12 15 999.8 - 12.6 - Partly cloudy 10 - - - -
17/03:30am 8.9 NNW 15 19 1000.1 - 12.6 - Partly cloudy 10 - - - -
17/03:00am 8.7 NNW 15 19 1000.0 - 12.6 - Mostly clear 10 - - - -
17/02:30am 9.0 NW 15 20 1000.3 - 12.6 - - 10 - - - -
17/02:00am 9.1 NW 15 19 1000.3 - 12.6 - - 10 - - - -
17/01:30am 9.0 NW 15 19 1000.7 - 12.6 - - 10 - - - -
17/01:00am 9.3 NW 17 23 1000.5 - 12.6 - Partly cloudy 10 - - - -
17/12:30am 9.5 NW 17 21 1000.6 - 12.6 - Partly cloudy 10 - - - -
17/12:00am 9.7 NW 17 24 1000.2 - 12.6 - Cloudy 10 - - - -
 
Date/Time
EST
Temp
°C
Wind Pressure Rain since
9am
mm
Weather Cloud Vis
km
Sea
Height
m
Swell
Dir  Spd
kts
Gust
kts
hPa Trend Height
m
Period
s
Dir
16/11:30pm 9.6 NW 17 22 1000.4 - 12.6 - Partly cloudy 10 - - - -
16/11:00pm 9.5 NW 21 29 1000.5 - 12.6 - Partly cloudy 10 - - - -
16/10:58pm 9.6 NW 20 29 1000.6 - 12.6 - Partly cloudy 10 - - - -
16/10:31pm 9.4 W 18 34 1001.2 - 10.6 - Partly cloudy 4 - - - -
16/10:30pm 9.5 W 16 26 1001.3 - 10.4 - Partly cloudy 4 - - - -
16/10:04pm 10.2 WNW 16 25 1000.9 - 6.4 - Partly cloudy 4 - - - -
16/10:01pm 10.3 NW 17 23 1001.0 - 6.0 - Partly cloudy 5 - - - -
16/10:00pm 10.3 NW 17 25 1001.0 - 5.4 - Partly cloudy 7 - - - -
16/09:46pm 10.5 NNW 19 31 1000.2 - 4.2 - Partly cloudy 10 - - - -
16/09:30pm 9.9 NNW 15 21 1000.3 - 4.2 - Partly cloudy 10 - - - -
16/09:00pm 9.4 NNW 13 16 1000.3 - 4.2 Showers Mostly cloudy 10 - - - -
16/08:44pm 9.3 NW 16 21 1000.2 - 4.2 - Partly cloudy 10 - - - -
16/08:40pm 9.4 NW 17 27 1000.2 - 4.2 - Partly cloudy 9 - - - -
16/08:31pm 9.8 NNW 22 29 1000.6 - 3.6 - Partly cloudy 5 - - - -
16/08:30pm 9.8 NNW 21 29 1000.7 - 3.4 - Partly cloudy 6 - - - -
16/08:23pm 10.3 NNW 17 29 1000.8 - 2.8 - Partly cloudy 10 - - - -
16/08:00pm 9.5 NNW 12 15 1000.6 - 2.6 - Partly cloudy 10 - - - -
16/07:30pm 10.1 NNW 12 16 1000.6 - 2.6 - - 10 - - - -
16/07:00pm 10.0 NW 13 19 1000.5 - 2.6 - Partly cloudy 10 - - - -
16/06:30pm 10.4 NW 12 16 1000.3 - 2.6 - Partly cloudy 10 - - - -
16/06:00pm 10.2 NW 8 12 1000.0 - 2.6 Rain Cloudy 10 - - - -
16/05:30pm 10.3 NW 19 23 999.8 - 2.6 - Partly cloudy 10 - - - -
16/05:18pm 10.9 NW 18 27 999.8 - 2.4 - Partly cloudy 9 - - - -
16/05:00pm 11.2 NW 13 17 999.4 - 2.0 - Partly cloudy 10 - - - -
16/04:30pm 11.2 WNW 18 25 999.2 - 1.8 - Partly cloudy 10 - - - -
16/04:06pm 12.3 WNW 16 27 999.1 - 1.8 - Partly cloudy 10 - - - -
16/04:00pm 12.6 WNW 15 24 999.0 - 1.8 - Partly cloudy 10 - - - -
16/03:46pm 13.2 WNW 15 28 998.8 - 1.8 - Partly cloudy 10 - - - -
16/03:30pm 13.1 WNW 17 26 998.8 - 1.8 - Partly cloudy 10 - - - -
16/03:03pm 13.1 NW 21 31 998.5 - 1.8 - Partly cloudy 10 - - - -
16/03:00pm 12.8 NW 23 31 998.4 - 1.8 - Partly cloudy 10 - - - -
16/02:30pm 13.9 WNW 27 39 998.1 - 1.8 - Partly cloudy 10 - - - -
16/02:00pm 14.4 WNW 27 39 997.8 - 1.8 - Partly cloudy 10 - - - -
16/01:44pm 13.5 WNW 25 35 997.9 - 1.8 - Partly cloudy 10 - - - -
16/01:30pm 13.4 WNW 27 35 997.8 - 1.8 - Partly cloudy 10 - - - -
16/01:03pm 13.6 W 21 31 998.0 - 1.8 - Partly cloudy 10 - - - -
16/01:00pm 14.1 WNW 22 31 998.0 - 1.8 - Partly cloudy 10 - - - -
16/12:32pm 13.3 W 27 37 998.0 - 1.8 - Partly cloudy 10 - - - -
16/12:30pm 13.2 W 29 37 998.0 - 1.8 - Partly cloudy 10 - - - -
16/12:13pm 12.6 WNW 22 32 997.9 - 1.8 - Partly cloudy 10 - - - -
16/12:00pm 11.9 WNW 18 25 998.1 - 1.8 Showers Partly cloudy 10 - - - -
16/11:59am 11.6 WNW 18 25 998.1 - 1.8 - Partly cloudy 10 - - - -
16/11:49am 10.0 W 25 44 998.1 - 1.8 - Partly cloudy 5 - - - -
16/11:41am 11.7 WNW 23 44 998.3 - 1.2 - Partly cloudy 10 - - - -
16/11:31am 13.2 WNW 21 34 997.8 - 1.0 - Partly cloudy 10 - - - -
16/11:30am 13.3 WNW 21 29 997.8 - 1.0 - Partly cloudy 10 - - - -
16/11:15am 12.4 WNW 20 35 997.7 - 1.0 - Partly cloudy 10 - - - -
16/11:08am 11.0 W 23 33 997.7 - 1.0 - Partly cloudy 8 - - - -
16/11:01am 10.1 W 26 35 997.8 - 1.0 - Partly cloudy 5 - - - -
16/11:00am 10.1 W 26 35 997.7 - 0.8 - Partly cloudy 6 - - - -
16/10:30am 12.7 WNW 19 30 997.2 - 0.4 - Partly cloudy 10 - - - -
16/10:12am 12.1 NW 17 27 997.0 - 0.4 - Partly cloudy 10 - - - -
16/10:00am 11.6 NW 17 24 997.0 - 0.4 - Partly cloudy 10 - - - -
16/09:30am 10.4 NW 19 30 996.9 - 0.2 - Partly cloudy 10 - - - -
16/09:01am 10.7 NW 21 31 996.4 - 0.0 - Partly cloudy 10 - - - -
16/09:00am 10.7 NW 22 31 996.3 - 7.4 - Cloudy 10 - - - -
16/08:52am 10.2 NW 21 31 996.2 - 7.4 - Partly cloudy 10 - - - -
16/08:30am 9.7 NW 20 26 996.1 - 7.4 - Partly cloudy 10 - - - -
16/08:00am 9.1 NW 18 25 995.8 - 7.4 - Partly cloudy 10 - - - -
16/07:30am 8.9 NW 18 23 995.5 - 7.4 - Partly cloudy 10 - - - -
16/07:00am 9.1 NW 20 26 994.9 - 7.4 - Partly cloudy 10 - - - -
16/06:30am 9.0 WNW 15 24 994.4 - 7.2 - Partly cloudy 7 - - - -
16/06:00am 9.8 NW 16 27 993.5 - 6.6 Showers Cloudy 10 - - - -
16/05:30am 9.9 WNW 20 30 993.1 - 6.6 - Partly cloudy 10 - - - -
16/05:00am 10.1 NW 23 37 992.0 - 6.4 - Partly cloudy 10 - - - -
16/04:31am 10.5 NW 25 39 991.5 - 6.4 - Partly cloudy 10 - - - -
16/04:30am 10.4 NW 24 32 991.5 - 6.4 - Partly cloudy 10 - - - -
16/04:17am 10.3 NW 18 29 991.7 - 6.4 - Partly cloudy 10 - - - -
16/04:00am 10.0 NNW 19 25 991.9 - 6.4 - Partly cloudy 10 - - - -
16/03:30am 9.7 NNW 21 29 991.6 - 6.4 - Partly cloudy 10 - - - -
16/03:00am 9.7 NNW 20 29 992.1 - 6.4 Showers Mostly cloudy 10 - - - -
16/02:41am 9.9 NW 20 32 992.7 - 6.4 - Partly cloudy 10 - - - -
16/02:30am 10.1 NNW 20 27 992.5 - 6.2 - Partly cloudy 10 - - - -
16/02:00am 10.0 NW 19 24 992.7 - 6.2 - - 10 - - - -
16/01:30am 10.4 NNW 17 22 992.6 - 6.2 - Partly cloudy 10 - - - -
16/01:00am 10.5 NW 17 23 993.2 - 6.2 - Partly cloudy 10 - - - -
16/12:30am 11.1 NW 18 32 993.7 - 6.0 - Partly cloudy 10 - - - -
16/12:00am 10.4 NW 13 17 994.3 - 6.0 - Cloudy 10 - - - -
 
Date/Time
EST
Temp
°C
Wind Pressure Rain since
9am
mm
Weather Cloud Vis
km
Sea
Height
m
Swell
Dir  Spd
kts
Gust
kts
hPa Trend Height
m
Period
s
Dir
15/11:30pm 9.4 NNW 13 16 994.7 - 6.0 - Partly cloudy 10 - - - -
15/11:00pm 9.3 NNW 12 15 994.7 - 6.0 - Partly cloudy 10 - - - -
15/10:30pm 10.5 NW 15 21 995.2 - 6.0 - Partly cloudy 10 - - - -
15/10:18pm 10.6 NW 17 23 995.4 - 6.0 - Partly cloudy 10 - - - -
15/10:00pm 11.1 NW 17 30 996.2 - 5.4 - Partly cloudy 5 - - - -
15/09:59pm 11.1 NW 17 23 996.2 - 5.2 - Partly cloudy 5 - - - -
15/09:30pm 11.0 NNW 15 21 996.0 - 4.4 - Partly cloudy 10 - - - -
15/09:00pm 10.7 NNW 16 20 996.2 - 4.4 Rain Cloudy 10 - - - -
15/08:30pm 11.5 NNW 15 20 996.6 - 4.2 - Cloudy 10 - - - -
15/08:00pm 12.1 NW 9 14 996.6 - 4.0 - Partly cloudy 10 - - - -
15/07:30pm 12.1 WNW 9 12 996.9 - 3.4 - Partly cloudy 10 - - - -
15/07:00pm 12.4 WNW 11 17 997.0 - 3.0 - Partly cloudy 10 - - - -
15/06:30pm 12.9 WNW 13 22 996.8 - 2.6 - Partly cloudy 10 - - - -
15/06:29pm 12.9 WNW 13 22 996.7 - 2.6 - Partly cloudy 10 - - - -
15/06:12pm 12.9 WNW 14 20 996.7 - 2.6 - Partly cloudy 10 - - - -
15/06:10pm 12.9 WNW 15 20 996.7 - 2.6 - Partly cloudy 10 - - - -
15/06:00pm 13.2 WNW 19 30 996.6 - 2.4 Rain Cloudy 5 - - - -
15/05:55pm 13.7 NW 19 30 996.6 - 2.4 - Partly cloudy 4 - - - -
15/05:52pm 14.1 NW 17 30 996.2 - 1.6 - Partly cloudy 5 - - - -
15/05:33pm 15.0 NW 17 27 996.1 - 1.0 - Partly cloudy 10 - - - -
15/05:30pm 15.1 NW 19 27 996.1 - 1.0 - Partly cloudy 10 - - - -
15/05:00pm 15.4 NNW 15 19 996.1 - 1.0 - Partly cloudy 10 - - - -
15/04:36pm 15.5 NW 16 26 996.1 - 1.0 - Partly cloudy 10 - - - -
15/04:30pm 15.4 NW 18 24 996.7 - 1.0 - Partly cloudy 10 - - - -
15/04:06pm 15.7 NW 19 29 996.8 - 1.0 - Partly cloudy 10 - - - -
15/04:00pm 15.8 NW 20 29 996.5 - 1.0 - Partly cloudy 10 - - - -
15/03:30pm 15.9 NNW 18 26 996.6 - 1.0 - Partly cloudy 10 - - - -
15/03:00pm 16.1 NW 18 25 997.1 - 1.0 - Cloudy 10 - - - -
15/02:30pm 16.2 NW 17 24 997.5 - 1.0 - Partly cloudy 10 - - - -
15/02:00pm 16.3 NNW 20 28 997.7 - 1.0 - Partly cloudy 10 - - - -
15/01:53pm 16.1 NNW 20 27 997.6 - 1.0 - Cloudy 10 - - - -
15/01:30pm 15.9 NNW 18 23 997.8 - 1.0 - Partly cloudy 10 - - - -
15/01:18pm 15.6 NNW 16 22 998.1 - 1.0 - Partly cloudy 10 - - - -
15/01:00pm 15.0 NNW 17 24 998.7 - 1.0 - Partly cloudy 3 - - - -
15/12:58pm 15.1 NNW 18 24 998.6 - 1.0 - Partly cloudy 3 - - - -
15/12:55pm 15.2 NNW 17 23 998.6 - 0.8 - Partly cloudy 5 - - - -
15/12:39pm 15.2 NNW 20 26 998.9 - 0.8 - Partly cloudy 10 - - - -
15/12:30pm 15.4 NNW 20 29 999.0 - 0.8 - Partly cloudy 6 - - - -
15/12:20pm 15.4 NNW 22 29 999.2 - 0.6 - Partly cloudy 5 - - - -
15/12:06pm 15.7 NNW 20 31 999.3 - 0.4 - Partly cloudy 8 - - - -
15/12:00pm 15.7 NW 20 29 999.5 - 0.2 Rain Cloudy 8 - - - -
15/11:32am 16.8 NW 21 31 999.2 - 0.0 - Partly cloudy 10 - - - -
15/11:30am 16.8 NW 22 31 999.2 - 0.0 - Partly cloudy 10 - - - -
15/11:00am 16.4 NNW 20 27 999.5 - 0.0 - Partly cloudy 10 - - - -
15/10:30am 15.3 NNW 20 30 999.5 - 0.0 - Cloudy 10 - - - -
15/10:23am 15.0 NNW 18 29 999.6 - 0.0 - Cloudy 10 - - - -
15/10:00am 14.9 NNW 17 23 999.9 - 0.0 - Partly cloudy 10 - - - -
15/09:30am 13.8 NNW 17 23 1000.6 - 0.0 - Partly cloudy 10 - - - -
15/09:18am 13.5 N 15 21 1000.9 - 0.0 - Partly cloudy 10 - - - -

Other Formats:

Comma delimited format used in spreadsheet applications
http://www.bom.gov.au/fwo/IDV60701/IDV60701.94837.axf

JavaScript Object Notation format (JSON) in row-major order
http://www.bom.gov.au/fwo/IDV60701/IDV60701.94837.json